sensor_id;sensor_type;location;lat;lon;timestamp;P1;durP1;ratioP1;P2;durP2;ratioP2
13455;SDS011;6800;50.940;6.940;2023-04-09T00:02:57;33.80;;;30.27;;
13455;SDS011;6800;50.940;6.940;2023-04-09T00:06:59;34.03;;;30.43;;
13455;SDS011;6800;50.940;6.940;2023-04-09T00:11:00;31.43;;;28.07;;
13455;SDS011;6800;50.940;6.940;2023-04-09T00:15:01;31.97;;;28.53;;
13455;SDS011;6800;50.940;6.940;2023-04-09T00:19:03;31.30;;;27.83;;
13455;SDS011;6800;50.940;6.940;2023-04-09T00:23:04;36.07;;;31.43;;
13455;SDS011;6800;50.940;6.940;2023-04-09T00:27:06;30.33;;;26.43;;
13455;SDS011;6800;50.940;6.940;2023-04-09T00:31:07;32.77;;;29.17;;
13455;SDS011;6800;50.940;6.940;2023-04-09T00:35:09;32.50;;;28.07;;
13455;SDS011;6800;50.940;6.940;2023-04-09T00:39:11;29.07;;;25.90;;
13455;SDS011;6800;50.940;6.940;2023-04-09T00:43:12;40.83;;;33.43;;
13455;SDS011;6800;50.940;6.940;2023-04-09T00:47:13;34.03;;;29.50;;
13455;SDS011;6800;50.940;6.940;2023-04-09T00:51:15;26.87;;;24.20;;
13455;SDS011;6800;50.940;6.940;2023-04-09T00:55:17;35.17;;;29.97;;
13455;SDS011;6800;50.940;6.940;2023-04-09T00:59:18;27.80;;;24.80;;
13455;SDS011;6800;50.940;6.940;2023-04-09T01:03:20;31.33;;;24.87;;
13455;SDS011;6800;50.940;6.940;2023-04-09T01:16:21;29.97;;;26.77;;
13455;SDS011;6800;50.940;6.940;2023-04-09T01:20:40;27.27;;;24.40;;
13455;SDS011;6800;50.940;6.940;2023-04-09T01:24:56;26.43;;;23.73;;
13455;SDS011;6800;50.940;6.940;2023-04-09T01:29:03;28.20;;;25.27;;
13455;SDS011;6800;50.940;6.940;2023-04-09T01:33:07;28.23;;;25.23;;
13455;SDS011;6800;50.940;6.940;2023-04-09T01:37:11;29.43;;;25.23;;
13455;SDS011;6800;50.940;6.940;2023-04-09T01:41:14;29.63;;;25.70;;
13455;SDS011;6800;50.940;6.940;2023-04-09T01:45:18;26.10;;;23.40;;
13455;SDS011;6800;50.940;6.940;2023-04-09T01:49:20;26.93;;;24.13;;
13455;SDS011;6800;50.940;6.940;2023-04-09T01:53:22;27.33;;;24.30;;
13455;SDS011;6800;50.940;6.940;2023-04-09T01:57:24;26.00;;;23.30;;
13455;SDS011;6800;50.940;6.940;2023-04-09T02:01:32;25.67;;;22.67;;
13455;SDS011;6800;50.940;6.940;2023-04-09T02:05:40;27.47;;;24.57;;
13455;SDS011;6800;50.940;6.940;2023-04-09T02:09:46;26.57;;;23.80;;
13455;SDS011;6800;50.940;6.940;2023-04-09T02:13:49;25.13;;;22.53;;
13455;SDS011;6800;50.940;6.940;2023-04-09T02:17:54;26.53;;;23.17;;
13455;SDS011;6800;50.940;6.940;2023-04-09T02:21:55;24.00;;;21.53;;
13455;SDS011;6800;50.940;6.940;2023-04-09T02:25:57;25.17;;;21.80;;
13455;SDS011;6800;50.940;6.940;2023-04-09T02:29:59;24.63;;;21.93;;
13455;SDS011;6800;50.940;6.940;2023-04-09T02:34:00;24.77;;;22.23;;
13455;SDS011;6800;50.940;6.940;2023-04-09T02:38:02;23.33;;;20.93;;
13455;SDS011;6800;50.940;6.940;2023-04-09T02:42:03;23.80;;;21.40;;
13455;SDS011;6800;50.940;6.940;2023-04-09T02:46:05;23.13;;;20.63;;
13455;SDS011;6800;50.940;6.940;2023-04-09T02:50:07;23.93;;;21.50;;
13455;SDS011;6800;50.940;6.940;2023-04-09T02:54:08;22.53;;;20.33;;
13455;SDS011;6800;50.940;6.940;2023-04-09T02:58:10;22.63;;;20.33;;
13455;SDS011;6800;50.940;6.940;2023-04-09T03:02:11;22.23;;;19.93;;
13455;SDS011;6800;50.940;6.940;2023-04-09T03:06:16;22.20;;;19.87;;
13455;SDS011;6800;50.940;6.940;2023-04-09T03:10:18;21.23;;;19.07;;
13455;SDS011;6800;50.940;6.940;2023-04-09T03:14:20;20.43;;;18.37;;
13455;SDS011;6800;50.940;6.940;2023-04-09T03:18:23;20.83;;;18.63;;
13455;SDS011;6800;50.940;6.940;2023-04-09T03:22:25;22.07;;;19.50;;
13455;SDS011;6800;50.940;6.940;2023-04-09T03:26:26;20.03;;;17.97;;
13455;SDS011;6800;50.940;6.940;2023-04-09T03:30:28;20.73;;;18.63;;
13455;SDS011;6800;50.940;6.940;2023-04-09T03:34:29;20.33;;;18.20;;
13455;SDS011;6800;50.940;6.940;2023-04-09T03:38:31;20.30;;;18.20;;
13455;SDS011;6800;50.940;6.940;2023-04-09T03:42:32;19.57;;;17.57;;
13455;SDS011;6800;50.940;6.940;2023-04-09T03:46:35;20.57;;;18.37;;
13455;SDS011;6800;50.940;6.940;2023-04-09T03:50:39;21.20;;;18.80;;
13455;SDS011;6800;50.940;6.940;2023-04-09T03:54:41;20.93;;;18.93;;
13455;SDS011;6800;50.940;6.940;2023-04-09T03:58:43;22.07;;;19.77;;
13455;SDS011;6800;50.940;6.940;2023-04-09T04:02:44;22.00;;;19.73;;
13455;SDS011;6800;50.940;6.940;2023-04-09T04:06:46;21.70;;;19.50;;
13455;SDS011;6800;50.940;6.940;2023-04-09T04:10:48;21.40;;;19.07;;
13455;SDS011;6800;50.940;6.940;2023-04-09T04:14:49;20.70;;;18.60;;
13455;SDS011;6800;50.940;6.940;2023-04-09T04:18:50;20.57;;;18.37;;
13455;SDS011;6800;50.940;6.940;2023-04-09T04:22:52;21.60;;;19.30;;
13455;SDS011;6800;50.940;6.940;2023-04-09T04:26:53;21.87;;;19.30;;
13455;SDS011;6800;50.940;6.940;2023-04-09T04:30:55;20.80;;;18.60;;
13455;SDS011;6800;50.940;6.940;2023-04-09T04:34:56;23.20;;;19.97;;
13455;SDS011;6800;50.940;6.940;2023-04-09T04:38:57;20.73;;;18.63;;
13455;SDS011;6800;50.940;6.940;2023-04-09T04:42:59;21.37;;;19.17;;
13455;SDS011;6800;50.940;6.940;2023-04-09T04:47:00;20.80;;;18.70;;
13455;SDS011;6800;50.940;6.940;2023-04-09T04:51:01;21.57;;;19.13;;
13455;SDS011;6800;50.940;6.940;2023-04-09T04:55:03;20.50;;;18.50;;
13455;SDS011;6800;50.940;6.940;2023-04-09T04:59:04;21.17;;;18.97;;
13455;SDS011;6800;50.940;6.940;2023-04-09T05:03:06;22.17;;;18.47;;
13455;SDS011;6800;50.940;6.940;2023-04-09T05:07:07;19.57;;;17.50;;
13455;SDS011;6800;50.940;6.940;2023-04-09T05:11:10;19.70;;;17.70;;
13455;SDS011;6800;50.940;6.940;2023-04-09T05:15:12;19.00;;;17.00;;
13455;SDS011;6800;50.940;6.940;2023-04-09T05:19:14;19.10;;;17.30;;
13455;SDS011;6800;50.940;6.940;2023-04-09T05:23:15;19.40;;;17.40;;
13455;SDS011;6800;50.940;6.940;2023-04-09T05:27:17;19.03;;;17.00;;
13455;SDS011;6800;50.940;6.940;2023-04-09T05:31:19;18.77;;;16.80;;
13455;SDS011;6800;50.940;6.940;2023-04-09T05:35:21;18.07;;;16.17;;
13455;SDS011;6800;50.940;6.940;2023-04-09T05:39:22;18.47;;;16.40;;
13455;SDS011;6800;50.940;6.940;2023-04-09T05:43:23;18.27;;;16.37;;
13455;SDS011;6800;50.940;6.940;2023-04-09T05:47:25;17.83;;;16.03;;
13455;SDS011;6800;50.940;6.940;2023-04-09T05:51:26;18.20;;;15.33;;
13455;SDS011;6800;50.940;6.940;2023-04-09T05:55:28;17.27;;;15.47;;
13455;SDS011;6800;50.940;6.940;2023-04-09T05:59:31;18.67;;;15.77;;
13455;SDS011;6800;50.940;6.940;2023-04-09T06:03:32;16.53;;;14.83;;
13455;SDS011;6800;50.940;6.940;2023-04-09T06:07:34;15.87;;;14.17;;
13455;SDS011;6800;50.940;6.940;2023-04-09T06:11:35;15.80;;;14.17;;
13455;SDS011;6800;50.940;6.940;2023-04-09T06:15:37;15.93;;;14.23;;
13455;SDS011;6800;50.940;6.940;2023-04-09T06:19:39;16.23;;;14.60;;
13455;SDS011;6800;50.940;6.940;2023-04-09T06:23:40;15.67;;;14.07;;
13455;SDS011;6800;50.940;6.940;2023-04-09T06:27:43;15.13;;;13.63;;
13455;SDS011;6800;50.940;6.940;2023-04-09T06:31:44;15.47;;;13.87;;
13455;SDS011;6800;50.940;6.940;2023-04-09T06:35:46;16.57;;;14.87;;
13455;SDS011;6800;50.940;6.940;2023-04-09T06:39:49;16.07;;;14.00;;
13455;SDS011;6800;50.940;6.940;2023-04-09T06:44:01;15.23;;;13.73;;
13455;SDS011;6800;50.940;6.940;2023-04-09T06:48:03;16.13;;;13.70;;
13455;SDS011;6800;50.940;6.940;2023-04-09T06:52:04;15.90;;;14.27;;
13455;SDS011;6800;50.940;6.940;2023-04-09T06:56:07;13.47;;;12.13;;
13455;SDS011;6800;50.940;6.940;2023-04-09T07:00:09;13.27;;;12.00;;
13455;SDS011;6800;50.940;6.940;2023-04-09T07:04:10;12.83;;;11.47;;
13455;SDS011;6800;50.940;6.940;2023-04-09T07:08:12;14.30;;;12.90;;
13455;SDS011;6800;50.940;6.940;2023-04-09T07:12:13;12.80;;;11.60;;
13455;SDS011;6800;50.940;6.940;2023-04-09T07:16:16;14.07;;;12.63;;
13455;SDS011;6800;50.940;6.940;2023-04-09T07:20:17;14.00;;;12.63;;
13455;SDS011;6800;50.940;6.940;2023-04-09T07:24:19;12.67;;;11.60;;
13455;SDS011;6800;50.940;6.940;2023-04-09T07:28:20;10.70;;;9.70;;
13455;SDS011;6800;50.940;6.940;2023-04-09T07:32:22;13.75;;;12.55;;
13455;SDS011;6800;50.940;6.940;2023-04-09T07:36:23;13.65;;;12.48;;
13455;SDS011;6800;50.940;6.940;2023-04-09T07:40:26;10.38;;;9.38;;
13455;SDS011;6800;50.940;6.940;2023-04-09T07:44:27;10.02;;;9.13;;
13455;SDS011;6800;50.940;6.940;2023-04-09T07:48:29;9.52;;;8.63;;
13455;SDS011;6800;50.940;6.940;2023-04-09T07:52:30;9.20;;;8.40;;
13455;SDS011;6800;50.940;6.940;2023-04-09T07:56:32;9.48;;;8.57;;
13455;SDS011;6800;50.940;6.940;2023-04-09T08:00:33;9.77;;;8.88;;
13455;SDS011;6800;50.940;6.940;2023-04-09T08:04:34;9.20;;;8.30;;
13455;SDS011;6800;50.940;6.940;2023-04-09T08:08:36;8.55;;;7.75;;
13455;SDS011;6800;50.940;6.940;2023-04-09T08:12:38;9.25;;;8.45;;
13455;SDS011;6800;50.940;6.940;2023-04-09T08:16:39;7.95;;;7.22;;
13455;SDS011;6800;50.940;6.940;2023-04-09T08:20:43;7.40;;;6.70;;
13455;SDS011;6800;50.940;6.940;2023-04-09T08:24:50;8.18;;;7.32;;
13455;SDS011;6800;50.940;6.940;2023-04-09T08:28:53;8.35;;;7.60;;
13455;SDS011;6800;50.940;6.940;2023-04-09T08:32:54;7.32;;;6.63;;
13455;SDS011;6800;50.940;6.940;2023-04-09T08:36:56;8.18;;;7.47;;
13455;SDS011;6800;50.940;6.940;2023-04-09T08:40:57;7.70;;;7.00;;
13455;SDS011;6800;50.940;6.940;2023-04-09T08:45:01;7.38;;;6.60;;
13455;SDS011;6800;50.940;6.940;2023-04-09T08:49:03;7.50;;;6.72;;
13455;SDS011;6800;50.940;6.940;2023-04-09T08:53:05;7.75;;;7.05;;
13455;SDS011;6800;50.940;6.940;2023-04-09T08:57:10;7.22;;;6.53;;
13455;SDS011;6800;50.940;6.940;2023-04-09T09:01:21;7.30;;;6.20;;
13455;SDS011;6800;50.940;6.940;2023-04-09T09:05:34;6.63;;;6.03;;
13455;SDS011;6800;50.940;6.940;2023-04-09T09:09:57;6.82;;;6.13;;
13455;SDS011;6800;50.940;6.940;2023-04-09T09:14:01;8.32;;;7.63;;
13455;SDS011;6800;50.940;6.940;2023-04-09T09:18:06;7.88;;;7.28;;
13455;SDS011;6800;50.940;6.940;2023-04-09T09:22:08;7.70;;;7.10;;
13455;SDS011;6800;50.940;6.940;2023-04-09T09:26:14;5.75;;;5.25;;
13455;SDS011;6800;50.940;6.940;2023-04-09T09:30:22;6.30;;;5.70;;
13455;SDS011;6800;50.940;6.940;2023-04-09T09:34:25;5.97;;;5.40;;
13455;SDS011;6800;50.940;6.940;2023-04-09T09:38:27;5.60;;;5.07;;
13455;SDS011;6800;50.940;6.940;2023-04-09T09:42:28;6.15;;;5.57;;
13455;SDS011;6800;50.940;6.940;2023-04-09T09:46:31;5.65;;;5.15;;
13455;SDS011;6800;50.940;6.940;2023-04-09T09:50:36;5.70;;;5.15;;
13455;SDS011;6800;50.940;6.940;2023-04-09T09:54:39;8.27;;;7.60;;
13455;SDS011;6800;50.940;6.940;2023-04-09T09:58:48;7.28;;;6.63;;
13455;SDS011;6800;50.940;6.940;2023-04-09T10:02:58;5.80;;;5.30;;
13455;SDS011;6800;50.940;6.940;2023-04-09T10:07:08;5.65;;;5.15;;
13455;SDS011;6800;50.940;6.940;2023-04-09T10:11:10;6.95;;;6.35;;
13455;SDS011;6800;50.940;6.940;2023-04-09T10:15:12;6.95;;;6.25;;
13455;SDS011;6800;50.940;6.940;2023-04-09T10:19:14;6.68;;;6.07;;
13455;SDS011;6800;50.940;6.940;2023-04-09T10:23:20;8.40;;;7.60;;
13455;SDS011;6800;50.940;6.940;2023-04-09T10:27:32;6.70;;;6.10;;
13455;SDS011;6800;50.940;6.940;2023-04-09T10:31:44;8.00;;;7.40;;
13455;SDS011;6800;50.940;6.940;2023-04-09T10:35:59;8.80;;;8.10;;
13455;SDS011;6800;50.940;6.940;2023-04-09T10:40:03;9.23;;;8.52;;
13455;SDS011;6800;50.940;6.940;2023-04-09T10:44:05;8.05;;;7.35;;
13455;SDS011;6800;50.940;6.940;2023-04-09T10:48:11;7.00;;;6.40;;
13455;SDS011;6800;50.940;6.940;2023-04-09T10:52:14;8.35;;;7.65;;
13455;SDS011;6800;50.940;6.940;2023-04-09T10:56:16;8.07;;;7.38;;
13455;SDS011;6800;50.940;6.940;2023-04-09T11:00:17;7.47;;;6.80;;
13455;SDS011;6800;50.940;6.940;2023-04-09T11:04:19;8.40;;;7.70;;
13455;SDS011;6800;50.940;6.940;2023-04-09T11:08:22;9.10;;;8.40;;
13455;SDS011;6800;50.940;6.940;2023-04-09T11:12:23;7.78;;;7.18;;
13455;SDS011;6800;50.940;6.940;2023-04-09T11:16:25;8.40;;;7.70;;
13455;SDS011;6800;50.940;6.940;2023-04-09T11:20:29;9.15;;;8.35;;
13455;SDS011;6800;50.940;6.940;2023-04-09T11:24:41;7.22;;;6.63;;
13455;SDS011;6800;50.940;6.940;2023-04-09T11:28:54;7.32;;;6.72;;
13455;SDS011;6800;50.940;6.940;2023-04-09T11:32:56;10.05;;;9.05;;
13455;SDS011;6800;50.940;6.940;2023-04-09T11:36:58;7.65;;;6.95;;
13455;SDS011;6800;50.940;6.940;2023-04-09T11:41:02;7.65;;;6.88;;
13455;SDS011;6800;50.940;6.940;2023-04-09T11:45:03;7.10;;;6.50;;
13455;SDS011;6800;50.940;6.940;2023-04-09T11:49:05;7.72;;;7.03;;
13455;SDS011;6800;50.940;6.940;2023-04-09T11:53:20;8.10;;;7.40;;
13455;SDS011;6800;50.940;6.940;2023-04-09T11:57:22;7.97;;;7.30;;
13455;SDS011;6800;50.940;6.940;2023-04-09T12:01:23;7.75;;;7.15;;
13455;SDS011;6800;50.940;6.940;2023-04-09T12:05:29;8.07;;;7.47;;
13455;SDS011;6800;50.940;6.940;2023-04-09T12:09:32;8.80;;;8.10;;
13455;SDS011;6800;50.940;6.940;2023-04-09T12:13:33;6.35;;;5.75;;
13455;SDS011;6800;50.940;6.940;2023-04-09T12:17:35;6.40;;;5.85;;
13455;SDS011;6800;50.940;6.940;2023-04-09T12:21:50;6.20;;;5.60;;
13455;SDS011;6800;50.940;6.940;2023-04-09T12:26:01;7.07;;;6.47;;
13455;SDS011;6800;50.940;6.940;2023-04-09T12:30:03;7.20;;;6.50;;
13455;SDS011;6800;50.940;6.940;2023-04-09T12:34:05;6.40;;;5.80;;
13455;SDS011;6800;50.940;6.940;2023-04-09T12:38:07;6.00;;;5.40;;
13455;SDS011;6800;50.940;6.940;2023-04-09T12:42:08;6.57;;;5.77;;
13455;SDS011;6800;50.940;6.940;2023-04-09T12:46:09;5.83;;;5.33;;
13455;SDS011;6800;50.940;6.940;2023-04-09T12:50:11;5.40;;;4.90;;
13455;SDS011;6800;50.940;6.940;2023-04-09T12:54:13;5.80;;;5.30;;
13455;SDS011;6800;50.940;6.940;2023-04-09T12:58:15;5.93;;;5.43;;
13455;SDS011;6800;50.940;6.940;2023-04-09T13:02:17;5.40;;;4.90;;
13455;SDS011;6800;50.940;6.940;2023-04-09T13:06:19;5.63;;;5.13;;
13455;SDS011;6800;50.940;6.940;2023-04-09T13:10:22;5.67;;;5.17;;
13455;SDS011;6800;50.940;6.940;2023-04-09T13:14:24;5.35;;;4.85;;
13455;SDS011;6800;50.940;6.940;2023-04-09T13:18:25;7.40;;;5.15;;
13455;SDS011;6800;50.940;6.940;2023-04-09T13:22:27;6.00;;;5.50;;
13455;SDS011;6800;50.940;6.940;2023-04-09T13:26:29;6.18;;;5.60;;
13455;SDS011;6800;50.940;6.940;2023-04-09T13:30:31;5.73;;;5.23;;
13455;SDS011;6800;50.940;6.940;2023-04-09T13:34:33;6.20;;;5.60;;
13455;SDS011;6800;50.940;6.940;2023-04-09T13:38:35;5.73;;;5.10;;
13455;SDS011;6800;50.940;6.940;2023-04-09T13:42:36;6.37;;;5.77;;
13455;SDS011;6800;50.940;6.940;2023-04-09T13:46:37;5.97;;;5.47;;
13455;SDS011;6800;50.940;6.940;2023-04-09T13:50:40;6.67;;;6.07;;
13455;SDS011;6800;50.940;6.940;2023-04-09T13:54:41;5.13;;;4.67;;
13455;SDS011;6800;50.940;6.940;2023-04-09T13:58:43;5.07;;;4.67;;
13455;SDS011;6800;50.940;6.940;2023-04-09T14:02:44;5.33;;;4.83;;
13455;SDS011;6800;50.940;6.940;2023-04-09T14:06:46;5.20;;;4.70;;
13455;SDS011;6800;50.940;6.940;2023-04-09T14:10:48;6.13;;;5.60;;
13455;SDS011;6800;50.940;6.940;2023-04-09T14:14:49;5.27;;;4.77;;
13455;SDS011;6800;50.940;6.940;2023-04-09T14:18:51;5.97;;;5.43;;
13455;SDS011;6800;50.940;6.940;2023-04-09T14:22:53;6.37;;;5.77;;
13455;SDS011;6800;50.940;6.940;2023-04-09T14:26:54;5.60;;;5.10;;
13455;SDS011;6800;50.940;6.940;2023-04-09T14:30:57;5.83;;;5.33;;
13455;SDS011;6800;50.940;6.940;2023-04-09T14:34:59;5.73;;;5.23;;
13455;SDS011;6800;50.940;6.940;2023-04-09T14:39:00;6.80;;;5.43;;
13455;SDS011;6800;50.940;6.940;2023-04-09T14:43:02;5.83;;;4.93;;
13455;SDS011;6800;50.940;6.940;2023-04-09T14:47:03;5.70;;;5.20;;
13455;SDS011;6800;50.940;6.940;2023-04-09T14:51:05;5.20;;;4.80;;
13455;SDS011;6800;50.940;6.940;2023-04-09T14:55:07;5.77;;;5.00;;
13455;SDS011;6800;50.940;6.940;2023-04-09T14:59:12;5.07;;;4.67;;
13455;SDS011;6800;50.940;6.940;2023-04-09T15:03:13;5.30;;;4.90;;
13455;SDS011;6800;50.940;6.940;2023-04-09T15:07:15;5.63;;;5.00;;
13455;SDS011;6800;50.940;6.940;2023-04-09T15:11:17;5.43;;;4.93;;
13455;SDS011;6800;50.940;6.940;2023-04-09T15:15:20;5.80;;;5.30;;
13455;SDS011;6800;50.940;6.940;2023-04-09T15:19:21;5.83;;;5.33;;
13455;SDS011;6800;50.940;6.940;2023-04-09T15:23:23;5.27;;;4.77;;
13455;SDS011;6800;50.940;6.940;2023-04-09T15:27:24;5.10;;;4.60;;
13455;SDS011;6800;50.940;6.940;2023-04-09T15:31:26;5.10;;;4.70;;
13455;SDS011;6800;50.940;6.940;2023-04-09T15:35:27;5.60;;;5.10;;
13455;SDS011;6800;50.940;6.940;2023-04-09T15:39:29;5.43;;;4.93;;
13455;SDS011;6800;50.940;6.940;2023-04-09T15:43:32;5.10;;;4.70;;
13455;SDS011;6800;50.940;6.940;2023-04-09T15:47:33;4.90;;;4.40;;
13455;SDS011;6800;50.940;6.940;2023-04-09T15:51:35;4.70;;;4.30;;
13455;SDS011;6800;50.940;6.940;2023-04-09T15:55:36;4.50;;;4.10;;
13455;SDS011;6800;50.940;6.940;2023-04-09T15:59:38;4.60;;;4.20;;
13455;SDS011;6800;50.940;6.940;2023-04-09T16:03:39;4.30;;;3.90;;
13455;SDS011;6800;50.940;6.940;2023-04-09T16:07:41;4.40;;;4.00;;
13455;SDS011;6800;50.940;6.940;2023-04-09T16:11:42;4.40;;;4.00;;
13455;SDS011;6800;50.940;6.940;2023-04-09T16:15:44;4.00;;;3.70;;
13455;SDS011;6800;50.940;6.940;2023-04-09T16:19:46;3.67;;;3.37;;
13455;SDS011;6800;50.940;6.940;2023-04-09T16:23:48;4.50;;;4.10;;
13455;SDS011;6800;50.940;6.940;2023-04-09T16:27:49;4.40;;;4.00;;
13455;SDS011;6800;50.940;6.940;2023-04-09T16:31:51;4.53;;;4.13;;
13455;SDS011;6800;50.940;6.940;2023-04-09T16:35:52;4.20;;;3.90;;
13455;SDS011;6800;50.940;6.940;2023-04-09T16:39:54;4.47;;;4.07;;
13455;SDS011;6800;50.940;6.940;2023-04-09T16:43:57;4.47;;;4.07;;
13455;SDS011;6800;50.940;6.940;2023-04-09T16:47:58;3.97;;;3.67;;
13455;SDS011;6800;50.940;6.940;2023-04-09T16:51:59;4.27;;;3.80;;
13455;SDS011;6800;50.940;6.940;2023-04-09T16:56:01;4.27;;;3.90;;
13455;SDS011;6800;50.940;6.940;2023-04-09T17:00:03;4.00;;;3.67;;
13455;SDS011;6800;50.940;6.940;2023-04-09T17:04:06;4.23;;;3.83;;
13455;SDS011;6800;50.940;6.940;2023-04-09T17:08:08;4.67;;;4.27;;
13455;SDS011;6800;50.940;6.940;2023-04-09T17:12:09;4.90;;;4.40;;
13455;SDS011;6800;50.940;6.940;2023-04-09T17:16:12;4.73;;;4.23;;
13455;SDS011;6800;50.940;6.940;2023-04-09T17:20:14;4.43;;;4.03;;
13455;SDS011;6800;50.940;6.940;2023-04-09T17:24:15;5.10;;;4.50;;
13455;SDS011;6800;50.940;6.940;2023-04-09T17:28:17;4.60;;;4.20;;
13455;SDS011;6800;50.940;6.940;2023-04-09T17:32:19;5.47;;;4.60;;
13455;SDS011;6800;50.940;6.940;2023-04-09T17:36:20;4.77;;;4.37;;
13455;SDS011;6800;50.940;6.940;2023-04-09T17:40:23;5.57;;;4.83;;
13455;SDS011;6800;50.940;6.940;2023-04-09T17:44:24;5.07;;;4.10;;
13455;SDS011;6800;50.940;6.940;2023-04-09T17:48:26;12.17;;;10.07;;
13455;SDS011;6800;50.940;6.940;2023-04-09T17:52:30;9.40;;;8.27;;
13455;SDS011;6800;50.940;6.940;2023-04-09T17:56:36;5.70;;;5.20;;
13455;SDS011;6800;50.940;6.940;2023-04-09T18:00:41;4.77;;;4.33;;
13455;SDS011;6800;50.940;6.940;2023-04-09T18:04:43;5.30;;;4.80;;
13455;SDS011;6800;50.940;6.940;2023-04-09T18:08:45;4.90;;;4.40;;
13455;SDS011;6800;50.940;6.940;2023-04-09T18:12:46;5.20;;;4.60;;
13455;SDS011;6800;50.940;6.940;2023-04-09T18:16:48;4.40;;;4.07;;
13455;SDS011;6800;50.940;6.940;2023-04-09T18:20:49;5.07;;;4.60;;
13455;SDS011;6800;50.940;6.940;2023-04-09T18:24:52;5.10;;;4.70;;
13455;SDS011;6800;50.940;6.940;2023-04-09T18:28:54;5.07;;;4.60;;
13455;SDS011;6800;50.940;6.940;2023-04-09T18:32:59;5.70;;;5.20;;
13455;SDS011;6800;50.940;6.940;2023-04-09T18:37:00;5.60;;;5.10;;
13455;SDS011;6800;50.940;6.940;2023-04-09T18:41:02;5.43;;;4.93;;
13455;SDS011;6800;50.940;6.940;2023-04-09T18:45:03;5.30;;;4.83;;
13455;SDS011;6800;50.940;6.940;2023-04-09T18:49:05;5.50;;;5.00;;
13455;SDS011;6800;50.940;6.940;2023-04-09T18:53:07;5.23;;;4.80;;
13455;SDS011;6800;50.940;6.940;2023-04-09T18:57:08;6.50;;;5.00;;
13455;SDS011;6800;50.940;6.940;2023-04-09T19:01:10;5.83;;;5.30;;
13455;SDS011;6800;50.940;6.940;2023-04-09T19:05:12;5.60;;;5.10;;
13455;SDS011;6800;50.940;6.940;2023-04-09T19:09:14;5.20;;;4.70;;
13455;SDS011;6800;50.940;6.940;2023-04-09T19:13:15;5.97;;;5.47;;
13455;SDS011;6800;50.940;6.940;2023-04-09T19:17:17;6.30;;;5.70;;
13455;SDS011;6800;50.940;6.940;2023-04-09T19:21:18;5.43;;;4.93;;
13455;SDS011;6800;50.940;6.940;2023-04-09T19:25:20;5.50;;;5.00;;
13455;SDS011;6800;50.940;6.940;2023-04-09T19:29:22;5.30;;;4.80;;
13455;SDS011;6800;50.940;6.940;2023-04-09T19:33:25;5.37;;;4.93;;
13455;SDS011;6800;50.940;6.940;2023-04-09T19:37:27;6.40;;;5.33;;
13455;SDS011;6800;50.940;6.940;2023-04-09T19:41:30;5.60;;;5.10;;
13455;SDS011;6800;50.940;6.940;2023-04-09T19:45:32;5.50;;;4.90;;
13455;SDS011;6800;50.940;6.940;2023-04-09T19:49:33;5.40;;;4.90;;
13455;SDS011;6800;50.940;6.940;2023-04-09T19:53:34;6.07;;;4.77;;
13455;SDS011;6800;50.940;6.940;2023-04-09T19:57:37;5.17;;;4.67;;
13455;SDS011;6800;50.940;6.940;2023-04-09T20:01:40;6.10;;;5.50;;
13455;SDS011;6800;50.940;6.940;2023-04-09T20:05:42;5.87;;;5.30;;
13455;SDS011;6800;50.940;6.940;2023-04-09T20:09:43;7.73;;;5.97;;
13455;SDS011;6800;50.940;6.940;2023-04-09T20:13:46;6.00;;;5.40;;
13455;SDS011;6800;50.940;6.940;2023-04-09T20:17:48;6.17;;;5.57;;
13455;SDS011;6800;50.940;6.940;2023-04-09T20:21:50;6.83;;;5.80;;
13455;SDS011;6800;50.940;6.940;2023-04-09T20:25:53;8.23;;;7.47;;
13455;SDS011;6800;50.940;6.940;2023-04-09T20:29:55;6.63;;;6.03;;
13455;SDS011;6800;50.940;6.940;2023-04-09T20:33:56;5.43;;;5.00;;
13455;SDS011;6800;50.940;6.940;2023-04-09T20:37:58;6.27;;;5.70;;
13455;SDS011;6800;50.940;6.940;2023-04-09T20:41:59;6.10;;;5.60;;
13455;SDS011;6800;50.940;6.940;2023-04-09T20:46:00;6.20;;;5.70;;
13455;SDS011;6800;50.940;6.940;2023-04-09T20:50:02;6.77;;;6.17;;
13455;SDS011;6800;50.940;6.940;2023-04-09T20:54:04;6.57;;;5.97;;
13455;SDS011;6800;50.940;6.940;2023-04-09T20:58:05;6.87;;;6.27;;
13455;SDS011;6800;50.940;6.940;2023-04-09T21:02:07;7.40;;;6.70;;
13455;SDS011;6800;50.940;6.940;2023-04-09T21:06:09;7.57;;;6.80;;
13455;SDS011;6800;50.940;6.940;2023-04-09T21:10:11;7.03;;;6.43;;
13455;SDS011;6800;50.940;6.940;2023-04-09T21:14:13;7.47;;;6.77;;
13455;SDS011;6800;50.940;6.940;2023-04-09T21:18:15;9.10;;;6.80;;
13455;SDS011;6800;50.940;6.940;2023-04-09T21:22:17;7.73;;;7.00;;
13455;SDS011;6800;50.940;6.940;2023-04-09T21:26:18;7.40;;;6.70;;
13455;SDS011;6800;50.940;6.940;2023-04-09T21:30:19;6.93;;;6.33;;
13455;SDS011;6800;50.940;6.940;2023-04-09T21:34:21;7.07;;;6.47;;
13455;SDS011;6800;50.940;6.940;2023-04-09T21:38:22;8.73;;;7.43;;
13455;SDS011;6800;50.940;6.940;2023-04-09T21:42:24;9.70;;;8.80;;
13455;SDS011;6800;50.940;6.940;2023-04-09T21:46:25;10.10;;;9.10;;
13455;SDS011;6800;50.940;6.940;2023-04-09T21:50:27;7.90;;;7.20;;
13455;SDS011;6800;50.940;6.940;2023-04-09T21:54:29;8.73;;;7.83;;
13455;SDS011;6800;50.940;6.940;2023-04-09T21:58:30;8.87;;;7.97;;
13455;SDS011;6800;50.940;6.940;2023-04-09T22:02:32;9.33;;;8.33;;
13455;SDS011;6800;50.940;6.940;2023-04-09T22:06:33;9.87;;;8.87;;
13455;SDS011;6800;50.940;6.940;2023-04-09T22:10:35;9.00;;;8.10;;
13455;SDS011;6800;50.940;6.940;2023-04-09T22:14:36;9.30;;;8.40;;
13455;SDS011;6800;50.940;6.940;2023-04-09T22:18:41;9.57;;;8.73;;
13455;SDS011;6800;50.940;6.940;2023-04-09T22:22:42;10.67;;;9.57;;
13455;SDS011;6800;50.940;6.940;2023-04-09T22:26:44;11.70;;;9.30;;
13455;SDS011;6800;50.940;6.940;2023-04-09T22:30:46;10.20;;;9.20;;
13455;SDS011;6800;50.940;6.940;2023-04-09T22:34:48;11.17;;;10.07;;
13455;SDS011;6800;50.940;6.940;2023-04-09T22:38:49;10.53;;;9.53;;
13455;SDS011;6800;50.940;6.940;2023-04-09T22:42:52;11.80;;;10.57;;
13455;SDS011;6800;50.940;6.940;2023-04-09T22:46:53;10.67;;;9.53;;
13455;SDS011;6800;50.940;6.940;2023-04-09T22:50:55;12.00;;;10.77;;
13455;SDS011;6800;50.940;6.940;2023-04-09T22:54:56;11.20;;;10.07;;
13455;SDS011;6800;50.940;6.940;2023-04-09T22:58:58;10.87;;;9.60;;
13455;SDS011;6800;50.940;6.940;2023-04-09T23:02:59;13.03;;;11.67;;
13455;SDS011;6800;50.940;6.940;2023-04-09T23:07:01;11.13;;;10.03;;
13455;SDS011;6800;50.940;6.940;2023-04-09T23:11:03;12.13;;;10.93;;
13455;SDS011;6800;50.940;6.940;2023-04-09T23:15:05;12.83;;;11.53;;
13455;SDS011;6800;50.940;6.940;2023-04-09T23:19:07;12.00;;;10.80;;
13455;SDS011;6800;50.940;6.940;2023-04-09T23:23:08;14.87;;;13.27;;
13455;SDS011;6800;50.940;6.940;2023-04-09T23:27:10;10.90;;;9.63;;
13455;SDS011;6800;50.940;6.940;2023-04-09T23:31:11;17.70;;;12.20;;
13455;SDS011;6800;50.940;6.940;2023-04-09T23:35:12;14.10;;;12.53;;
13455;SDS011;6800;50.940;6.940;2023-04-09T23:39:14;17.30;;;12.93;;
13455;SDS011;6800;50.940;6.940;2023-04-09T23:43:15;15.30;;;13.70;;
13455;SDS011;6800;50.940;6.940;2023-04-09T23:47:17;13.87;;;11.87;;
13455;SDS011;6800;50.940;6.940;2023-04-09T23:51:19;12.93;;;11.63;;
13455;SDS011;6800;50.940;6.940;2023-04-09T23:55:20;15.03;;;13.30;;
13455;SDS011;6800;50.940;6.940;2023-04-09T23:59:22;15.53;;;13.47;;
